createdAt,value
2022-10-18T00:02:02.034Z,8.95
2022-10-18T00:05:43.801Z,8.25
2022-10-18T00:09:27.472Z,8.93
2022-10-18T00:13:09.408Z,8.27
2022-10-18T00:16:51.105Z,5.90
2022-10-18T00:20:32.974Z,8.43
2022-10-18T00:24:14.658Z,6.18
2022-10-18T00:27:56.346Z,3.65
2022-10-18T00:31:38.501Z,2.75
2022-10-18T00:35:20.197Z,5.90
2022-10-18T00:39:02.739Z,4.05
2022-10-18T00:42:44.767Z,6.85
2022-10-18T00:46:31.227Z,3.92
2022-10-18T00:50:13.310Z,4.22
2022-10-18T00:53:55.034Z,4.18
2022-10-18T00:57:36.861Z,5.18
2022-10-18T01:01:22.257Z,6.70
2022-10-18T01:05:06.993Z,7.47
2022-10-18T01:08:59.703Z,6.05
2022-10-18T01:12:59.621Z,5.78
2022-10-18T01:16:56.186Z,8.73
2022-10-18T01:21:15.705Z,8.95
2022-10-18T01:25:00.446Z,7.82
2022-10-18T01:28:53.236Z,4.97
2022-10-18T01:32:41.413Z,7.30
2022-10-18T01:36:34.819Z,7.80
2022-10-18T01:40:18.256Z,6.25
2022-10-18T01:44:00.968Z,23.48
2022-10-18T01:47:46.349Z,27.13
2022-10-18T01:51:30.188Z,43.17
2022-10-18T01:59:11.804Z,20.33
2022-10-18T02:03:17.158Z,22.83
2022-10-18T02:07:14.292Z,18.90
2022-10-18T02:11:06.676Z,14.95
2022-10-18T02:14:48.372Z,24.08
2022-10-18T02:18:36.690Z,50.97
2022-10-18T02:22:18.554Z,38.25
2022-10-18T02:26:00.414Z,17.40
2022-10-18T02:29:42.150Z,26.20
2022-10-18T02:33:54.358Z,17.50
2022-10-18T02:37:38.117Z,19.52
2022-10-18T02:45:08.134Z,22.80
2022-10-18T02:48:50.060Z,25.20
2022-10-18T02:52:32.065Z,37.53
2022-10-18T02:56:13.779Z,24.23
2022-10-18T02:59:55.824Z,21.30
2022-10-18T03:03:37.857Z,26.40
2022-10-18T03:07:19.541Z,15.60
2022-10-18T03:11:01.347Z,31.45
2022-10-18T03:14:43.053Z,14.40
2022-10-18T03:18:24.737Z,17.77
2022-10-18T03:22:06.745Z,10.73
2022-10-18T03:25:48.516Z,25.50
2022-10-18T03:29:30.235Z,15.68
2022-10-18T03:33:12.130Z,7.53
2022-10-18T03:36:54.934Z,44.53
2022-10-18T03:40:36.975Z,52.92
2022-10-18T03:44:18.670Z,21.75
2022-10-18T03:48:00.381Z,32.15
2022-10-18T03:51:43.267Z,42.47
2022-10-18T03:55:24.964Z,25.70
2022-10-18T03:59:06.750Z,44.90
2022-10-18T04:02:52.083Z,26.02
2022-10-18T04:06:36.859Z,26.23
2022-10-18T04:10:18.758Z,61.58
2022-10-18T04:14:00.436Z,51.22
2022-10-18T04:17:42.226Z,43.67
2022-10-18T04:21:24.167Z,21.92
2022-10-18T04:25:06.205Z,13.43
2022-10-18T04:28:47.932Z,12.13
2022-10-18T04:32:29.875Z,18.92
2022-10-18T04:36:11.578Z,15.23
2022-10-18T04:39:53.852Z,32.10
2022-10-18T04:43:36.072Z,16.92
2022-10-18T04:47:17.866Z,22.42
2022-10-18T04:51:00.866Z,16.52
2022-10-18T04:54:42.562Z,20.30
2022-10-18T04:58:24.461Z,23.63
2022-10-18T05:02:06.579Z,20.70
2022-10-18T05:06:03.804Z,23.48
2022-10-18T05:09:45.605Z,16.48
2022-10-18T05:13:27.786Z,21.25
2022-10-18T05:17:09.616Z,37.30
2022-10-18T05:20:51.518Z,34.20
2022-10-18T05:24:33.222Z,32.53
2022-10-18T05:28:38.254Z,18.38
2022-10-18T05:32:16.842Z,18.77
2022-10-18T05:35:58.651Z,8.80
2022-10-18T05:39:40.372Z,16.65
2022-10-18T05:43:22.341Z,17.08
2022-10-18T05:47:04.081Z,13.68
2022-10-18T05:50:47.075Z,16.17
2022-10-18T05:54:28.758Z,22.90
2022-10-18T05:58:10.465Z,19.67
2022-10-18T06:01:53.391Z,17.42
2022-10-18T06:05:35.094Z,25.20
2022-10-18T06:09:16.903Z,11.00
2022-10-18T06:12:58.777Z,13.43
2022-10-18T06:16:40.482Z,14.85
2022-10-18T06:20:22.476Z,21.80
2022-10-18T06:24:04.415Z,24.27
2022-10-18T06:27:46.146Z,22.88
2022-10-18T06:31:30.525Z,9.63
2022-10-18T06:35:12.226Z,21.08
2022-10-18T06:38:54.015Z,19.40
2022-10-18T06:42:35.956Z,33.60
2022-10-18T06:46:17.767Z,28.70
2022-10-18T06:49:59.882Z,17.13
2022-10-18T06:53:44.557Z,19.75
2022-10-18T06:57:35.127Z,8.80
2022-10-18T07:01:17.723Z,25.27
2022-10-18T07:04:59.481Z,3.58
2022-10-18T07:08:41.258Z,20.90
2022-10-18T07:12:23.294Z,23.38
2022-10-18T07:16:06.661Z,9.45
2022-10-18T07:19:48.385Z,10.88
2022-10-18T07:23:32.635Z,26.83
2022-10-18T07:27:14.360Z,21.65
2022-10-18T07:30:58.160Z,12.93
2022-10-18T07:34:41.134Z,15.70
2022-10-18T07:38:23.698Z,16.65
2022-10-18T07:42:05.472Z,23.75
2022-10-18T07:45:57.330Z,9.13
2022-10-18T07:49:39.014Z,24.88
2022-10-18T07:53:21.168Z,14.38
2022-10-18T07:57:04.605Z,18.23
2022-10-18T08:00:46.451Z,13.00
2022-10-18T08:04:28.134Z,25.70
2022-10-18T08:08:09.869Z,11.05
2022-10-18T08:11:51.875Z,6.53
2022-10-18T08:15:33.694Z,10.82
2022-10-18T08:19:15.391Z,13.07
2022-10-18T08:23:00.093Z,12.65
2022-10-18T08:26:42.396Z,8.98
2022-10-18T08:30:24.372Z,25.35
2022-10-18T08:34:06.083Z,15.73
2022-10-18T08:37:48.508Z,19.05
2022-10-18T08:41:43.983Z,9.48
2022-10-18T08:45:37.771Z,8.70
2022-10-18T08:49:41.852Z,20.02
2022-10-18T08:53:35.089Z,9.68
2022-10-18T08:57:19.398Z,12.30
2022-10-18T09:01:07.549Z,19.25
2022-10-18T09:04:54.329Z,13.13
2022-10-18T09:08:39.161Z,11.00
2022-10-18T09:12:31.048Z,5.70
2022-10-18T09:16:17.761Z,7.30
2022-10-18T09:20:22.961Z,12.10
2022-10-18T09:24:12.801Z,7.20
2022-10-18T09:28:04.258Z,16.05
2022-10-18T09:32:05.143Z,4.43
2022-10-18T09:35:56.885Z,7.13
2022-10-18T09:39:38.644Z,7.38
2022-10-18T09:43:25.023Z,6.28
2022-10-18T09:47:14.579Z,6.72
2022-10-18T09:51:02.946Z,5.20
2022-10-18T09:54:55.041Z,4.15
2022-10-18T09:58:42.581Z,7.57
2022-10-18T10:02:24.512Z,7.85
2022-10-18T10:06:12.267Z,9.43
2022-10-18T10:10:16.306Z,6.72
2022-10-18T10:14:21.542Z,8.65
2022-10-18T10:18:05.369Z,10.70
2022-10-18T10:25:32.983Z,6.07
2022-10-18T10:29:46.844Z,7.35
2022-10-18T10:33:37.517Z,7.95
2022-10-18T10:37:35.607Z,8.80
2022-10-18T10:41:21.861Z,5.45
2022-10-18T10:45:03.710Z,5.53
2022-10-18T10:49:08.460Z,5.22
2022-10-18T10:52:56.558Z,5.53
2022-10-18T10:56:59.217Z,21.70
2022-10-18T11:00:44.702Z,4.03
2022-10-18T11:04:30.304Z,4.85
2022-10-18T11:08:13.390Z,5.78
2022-10-18T11:12:12.794Z,5.57
2022-10-18T11:16:20.694Z,4.80
2022-10-18T11:20:07.028Z,5.18
2022-10-18T11:23:48.882Z,5.40
2022-10-18T11:27:57.885Z,4.43
2022-10-18T11:31:45.321Z,5.10
2022-10-18T11:35:50.330Z,6.90
2022-10-18T11:40:03.935Z,3.88
2022-10-18T11:44:02.169Z,5.82
2022-10-18T11:48:05.652Z,4.32
2022-10-18T11:52:08.491Z,2.73
2022-10-18T11:56:12.886Z,5.10
2022-10-18T12:00:13.056Z,3.85
2022-10-18T12:04:24.938Z,4.53
2022-10-18T12:08:14.179Z,4.03
2022-10-18T12:12:02.011Z,5.70
2022-10-18T12:15:43.719Z,6.85
2022-10-18T12:19:27.337Z,10.27
2022-10-18T12:23:24.596Z,4.65
2022-10-18T12:27:06.372Z,7.72
2022-10-18T12:31:08.309Z,7.25
2022-10-18T12:34:55.002Z,7.28
2022-10-18T12:38:38.061Z,5.28
2022-10-18T12:42:27.874Z,5.72
2022-10-18T12:46:13.840Z,7.40
2022-10-18T12:50:00.991Z,7.22
2022-10-18T12:54:03.138Z,5.38
2022-10-18T12:57:53.732Z,9.15
2022-10-18T13:01:50.877Z,5.13
2022-10-18T13:05:56.328Z,5.28
2022-10-18T13:09:39.535Z,7.32
2022-10-18T13:13:39.090Z,13.18
2022-10-18T13:17:39.331Z,3.47
2022-10-18T13:21:41.653Z,5.97
2022-10-18T13:25:26.430Z,4.40
2022-10-18T13:29:29.398Z,7.65
2022-10-18T13:33:17.892Z,6.47
2022-10-18T13:37:18.769Z,7.68
2022-10-18T13:41:07.824Z,10.95
2022-10-18T13:44:49.520Z,8.57
2022-10-18T13:48:31.199Z,8.43
2022-10-18T13:52:22.230Z,6.32
2022-10-18T13:56:24.530Z,8.55
2022-10-18T14:00:21.657Z,5.00
2022-10-18T14:04:24.082Z,5.28
2022-10-18T14:08:20.638Z,7.95
2022-10-18T14:12:14.774Z,7.65
2022-10-18T14:16:02.083Z,5.38
2022-10-18T14:19:49.071Z,4.68
2022-10-18T14:23:35.882Z,7.85
2022-10-18T14:27:43.665Z,8.13
2022-10-18T14:31:25.646Z,5.28
2022-10-18T14:35:34.311Z,4.47
2022-10-18T14:39:24.420Z,8.00
2022-10-18T14:43:09.416Z,5.82
2022-10-18T14:47:01.163Z,8.02
2022-10-18T14:50:44.980Z,5.07
2022-10-18T14:54:33.966Z,5.47
2022-10-18T14:58:15.704Z,7.60
2022-10-18T15:02:02.576Z,8.60
2022-10-18T15:05:59.334Z,4.88
2022-10-18T15:09:41.043Z,4.72
2022-10-18T15:13:23.330Z,7.80
2022-10-18T15:17:12.595Z,7.30
2022-10-18T15:21:23.086Z,4.10
2022-10-18T15:25:16.511Z,7.32
2022-10-18T15:29:01.546Z,15.60
2022-10-18T15:32:59.665Z,5.80
2022-10-18T15:36:41.517Z,6.22
2022-10-18T15:40:23.342Z,6.88
2022-10-18T15:44:13.241Z,6.68
2022-10-18T15:48:10.958Z,7.22
2022-10-18T15:52:17.259Z,5.90
2022-10-18T15:56:11.899Z,4.95
2022-10-18T16:00:02.146Z,4.53
2022-10-18T16:03:45.232Z,5.78
2022-10-18T16:07:27.001Z,6.38
2022-10-18T16:11:25.063Z,7.57
2022-10-18T16:15:07.275Z,7.13
2022-10-18T16:18:49.001Z,10.13
2022-10-18T16:22:33.393Z,7.35
2022-10-18T16:26:18.146Z,8.93
2022-10-18T16:29:59.927Z,5.75
2022-10-18T16:33:41.657Z,5.97
2022-10-18T16:37:23.395Z,13.82
2022-10-18T16:41:06.045Z,9.40
2022-10-18T16:44:49.056Z,5.88
2022-10-18T16:48:30.845Z,9.55
2022-10-18T16:52:12.811Z,7.90
2022-10-18T16:55:56.440Z,7.35
2022-10-18T17:03:20.153Z,9.07
2022-10-18T17:07:01.923Z,8.55
2022-10-18T17:10:45.109Z,10.75
2022-10-18T17:14:26.831Z,7.97
2022-10-18T17:18:19.706Z,6.88
2022-10-18T17:22:02.703Z,9.38
2022-10-18T17:25:57.532Z,7.13
2022-10-18T17:29:46.515Z,8.30
2022-10-18T17:33:28.293Z,6.80
2022-10-18T17:37:10.032Z,11.73
2022-10-18T17:40:54.689Z,9.93
2022-10-18T17:44:36.479Z,7.40
2022-10-18T17:48:18.309Z,10.60
2022-10-18T17:52:04.613Z,9.30
2022-10-18T17:55:50.817Z,9.52
2022-10-18T17:59:33.103Z,6.95
2022-10-18T18:03:14.999Z,10.43
2022-10-18T18:06:57.323Z,11.50
2022-10-18T18:10:39.192Z,11.27
2022-10-18T18:14:21.675Z,10.95
2022-10-18T18:18:03.551Z,7.35
2022-10-18T18:21:45.591Z,10.45
2022-10-18T18:25:27.282Z,8.65
2022-10-18T18:29:10.014Z,9.63
2022-10-18T18:32:51.885Z,10.07
2022-10-18T18:36:33.586Z,9.27
2022-10-18T18:40:15.358Z,9.15
2022-10-18T18:43:58.624Z,26.75
2022-10-18T18:47:40.326Z,17.08
2022-10-18T18:51:24.429Z,11.60
2022-10-18T18:55:06.667Z,20.10
2022-10-18T18:58:48.423Z,10.63
2022-10-18T19:02:30.192Z,8.95
2022-10-18T19:06:15.684Z,11.32
2022-10-18T19:09:57.373Z,6.18
2022-10-18T19:13:39.322Z,9.02
2022-10-18T19:17:21.921Z,9.85
2022-10-18T19:21:03.961Z,10.55
2022-10-18T19:24:45.658Z,11.02
2022-10-18T19:28:28.316Z,8.55
2022-10-18T19:32:16.797Z,7.18
2022-10-18T19:35:58.560Z,6.78
2022-10-18T19:39:40.261Z,8.88
2022-10-18T19:43:23.224Z,9.40
2022-10-18T19:47:10.491Z,6.60
2022-10-18T19:50:52.351Z,11.75
2022-10-18T19:54:34.116Z,6.05
2022-10-18T19:58:16.260Z,9.10
2022-10-18T20:02:00.482Z,9.18
2022-10-18T20:05:42.178Z,7.07
2022-10-18T20:09:23.939Z,7.78
2022-10-18T20:13:06.838Z,10.73
2022-10-18T20:16:48.744Z,9.57
2022-10-18T20:20:30.764Z,7.60
2022-10-18T20:24:12.534Z,9.93
2022-10-18T20:27:54.259Z,14.43
2022-10-18T20:31:38.372Z,15.30
2022-10-18T20:35:20.652Z,9.43
2022-10-18T20:39:02.498Z,7.07
2022-10-18T20:42:44.321Z,9.38
2022-10-18T20:46:26.901Z,11.85
2022-10-18T20:50:09.238Z,13.18
2022-10-18T20:53:51.092Z,7.68
2022-10-18T20:57:36.450Z,6.10
2022-10-18T21:01:20.813Z,7.43
2022-10-18T21:05:02.630Z,9.85
2022-10-18T21:08:44.599Z,7.20
2022-10-18T21:12:28.746Z,7.13
2022-10-18T21:16:10.871Z,7.90
2022-10-18T21:19:53.697Z,6.05
2022-10-18T21:23:35.486Z,11.03
2022-10-18T21:27:17.183Z,9.00
2022-10-18T21:31:09.984Z,9.98
2022-10-18T21:34:51.695Z,8.95
2022-10-18T21:38:33.458Z,9.43
2022-10-18T21:42:15.237Z,6.28
2022-10-18T21:46:00.527Z,12.05
2022-10-18T21:49:42.289Z,5.20
2022-10-18T21:53:24.022Z,6.40
2022-10-18T21:57:05.723Z,4.85
2022-10-18T22:00:47.657Z,8.13
2022-10-18T22:04:35.630Z,8.07
2022-10-18T22:08:17.325Z,9.07
2022-10-18T22:11:59.387Z,5.78
2022-10-18T22:15:41.064Z,8.00
2022-10-18T22:19:22.788Z,8.32
2022-10-18T22:23:04.712Z,10.80
2022-10-18T22:26:46.673Z,9.88
2022-10-18T22:30:29.512Z,7.18
2022-10-18T22:34:13.173Z,7.20
2022-10-18T22:41:36.802Z,12.98
2022-10-18T22:45:18.546Z,11.75
2022-10-18T22:49:00.252Z,10.32
2022-10-18T22:52:42.159Z,8.30
2022-10-18T22:56:24.044Z,8.32
2022-10-18T23:00:06.373Z,7.88
2022-10-18T23:03:52.952Z,10.20
2022-10-18T23:07:34.651Z,13.20
2022-10-18T23:11:16.450Z,19.48
2022-10-18T23:14:58.137Z,10.40
2022-10-18T23:22:26.702Z,7.93
2022-10-18T23:26:16.802Z,10.30
2022-10-18T23:29:58.490Z,7.93
2022-10-18T23:33:40.570Z,11.68
2022-10-18T23:37:22.248Z,8.82
2022-10-18T23:41:06.562Z,12.15
2022-10-18T23:44:48.305Z,13.82
2022-10-18T23:48:30.036Z,13.65
2022-10-18T23:52:11.869Z,10.80
2022-10-18T23:56:00.743Z,10.27
2022-10-18T23:59:42.443Z,10.50
